sensor_id;sensor_type;location;lat;lon;timestamp;P1;durP1;ratioP1;P2;durP2;ratioP2
18596;SDS011;9428;50.950;6.912;2023-04-03T00:00:29;5.33;;;2.50;;
18596;SDS011;9428;50.950;6.912;2023-04-03T00:03:18;4.80;;;2.93;;
18596;SDS011;9428;50.950;6.912;2023-04-03T00:06:06;4.67;;;3.10;;
18596;SDS011;9428;50.950;6.912;2023-04-03T00:08:55;6.53;;;3.67;;
18596;SDS011;9428;50.950;6.912;2023-04-03T00:11:42;5.60;;;3.43;;
18596;SDS011;9428;50.950;6.912;2023-04-03T00:14:29;5.20;;;3.70;;
18596;SDS011;9428;50.950;6.912;2023-04-03T00:17:17;6.87;;;3.40;;
18596;SDS011;9428;50.950;6.912;2023-04-03T00:20:04;8.03;;;3.63;;
18596;SDS011;9428;50.950;6.912;2023-04-03T00:22:52;6.13;;;3.97;;
18596;SDS011;9428;50.950;6.912;2023-04-03T00:25:41;6.60;;;3.67;;
18596;SDS011;9428;50.950;6.912;2023-04-03T00:28:29;8.17;;;3.97;;
18596;SDS011;9428;50.950;6.912;2023-04-03T00:31:16;7.30;;;3.43;;
18596;SDS011;9428;50.950;6.912;2023-04-03T00:34:03;5.27;;;2.90;;
18596;SDS011;9428;50.950;6.912;2023-04-03T00:36:50;6.50;;;3.63;;
18596;SDS011;9428;50.950;6.912;2023-04-03T00:39:38;4.70;;;2.90;;
18596;SDS011;9428;50.950;6.912;2023-04-03T00:42:27;5.23;;;3.50;;
18596;SDS011;9428;50.950;6.912;2023-04-03T00:45:25;6.27;;;3.53;;
18596;SDS011;9428;50.950;6.912;2023-04-03T00:48:18;5.07;;;3.10;;
18596;SDS011;9428;50.950;6.912;2023-04-03T00:51:09;5.40;;;3.67;;
18596;SDS011;9428;50.950;6.912;2023-04-03T00:54:00;5.60;;;3.33;;
18596;SDS011;9428;50.950;6.912;2023-04-03T00:56:51;4.63;;;3.10;;
18596;SDS011;9428;50.950;6.912;2023-04-03T00:59:41;6.23;;;3.60;;
18596;SDS011;9428;50.950;6.912;2023-04-03T01:02:33;6.00;;;3.30;;
18596;SDS011;9428;50.950;6.912;2023-04-03T01:05:21;4.60;;;3.23;;
18596;SDS011;9428;50.950;6.912;2023-04-03T01:08:08;4.90;;;3.17;;
18596;SDS011;9428;50.950;6.912;2023-04-03T01:10:56;4.77;;;3.10;;
18596;SDS011;9428;50.950;6.912;2023-04-03T01:13:44;4.93;;;3.20;;
18596;SDS011;9428;50.950;6.912;2023-04-03T01:16:32;5.47;;;2.80;;
18596;SDS011;9428;50.950;6.912;2023-04-03T01:19:20;5.47;;;3.37;;
18596;SDS011;9428;50.950;6.912;2023-04-03T01:22:15;4.83;;;3.23;;
18596;SDS011;9428;50.950;6.912;2023-04-03T01:25:10;5.37;;;2.77;;
18596;SDS011;9428;50.950;6.912;2023-04-03T01:27:57;7.53;;;2.87;;
18596;SDS011;9428;50.950;6.912;2023-04-03T01:30:45;4.77;;;3.10;;
18596;SDS011;9428;50.950;6.912;2023-04-03T01:33:38;4.33;;;2.40;;
18596;SDS011;9428;50.950;6.912;2023-04-03T01:36:26;3.83;;;2.33;;
18596;SDS011;9428;50.950;6.912;2023-04-03T01:39:14;5.53;;;2.60;;
18596;SDS011;9428;50.950;6.912;2023-04-03T01:42:02;8.07;;;3.63;;
18596;SDS011;9428;50.950;6.912;2023-04-03T01:44:49;9.87;;;3.80;;
18596;SDS011;9428;50.950;6.912;2023-04-03T01:47:36;7.30;;;3.37;;
18596;SDS011;9428;50.950;6.912;2023-04-03T01:50:25;6.90;;;3.30;;
18596;SDS011;9428;50.950;6.912;2023-04-03T01:53:12;8.17;;;4.10;;
18596;SDS011;9428;50.950;6.912;2023-04-03T01:56:00;4.47;;;3.17;;
18596;SDS011;9428;50.950;6.912;2023-04-03T01:58:47;6.27;;;3.17;;
18596;SDS011;9428;50.950;6.912;2023-04-03T02:01:35;3.87;;;2.83;;
18596;SDS011;9428;50.950;6.912;2023-04-03T02:04:22;5.77;;;3.17;;
18596;SDS011;9428;50.950;6.912;2023-04-03T02:07:11;5.83;;;2.80;;
18596;SDS011;9428;50.950;6.912;2023-04-03T02:09:58;4.87;;;3.03;;
18596;SDS011;9428;50.950;6.912;2023-04-03T02:12:45;5.77;;;3.50;;
18596;SDS011;9428;50.950;6.912;2023-04-03T02:15:33;5.60;;;3.43;;
18596;SDS011;9428;50.950;6.912;2023-04-03T02:18:20;5.20;;;3.23;;
18596;SDS011;9428;50.950;6.912;2023-04-03T02:21:08;5.60;;;3.30;;
18596;SDS011;9428;50.950;6.912;2023-04-03T02:23:56;5.57;;;4.33;;
18596;SDS011;9428;50.950;6.912;2023-04-03T02:26:44;6.83;;;4.53;;
18596;SDS011;9428;50.950;6.912;2023-04-03T02:29:31;6.00;;;4.47;;
18596;SDS011;9428;50.950;6.912;2023-04-03T02:32:18;5.10;;;3.70;;
18596;SDS011;9428;50.950;6.912;2023-04-03T02:35:06;5.57;;;3.73;;
18596;SDS011;9428;50.950;6.912;2023-04-03T02:37:53;5.37;;;4.40;;
18596;SDS011;9428;50.950;6.912;2023-04-03T02:40:42;6.43;;;3.70;;
18596;SDS011;9428;50.950;6.912;2023-04-03T02:43:29;4.80;;;3.73;;
18596;SDS011;9428;50.950;6.912;2023-04-03T02:46:16;6.70;;;3.80;;
18596;SDS011;9428;50.950;6.912;2023-04-03T02:49:04;5.70;;;4.10;;
18596;SDS011;9428;50.950;6.912;2023-04-03T02:51:51;7.07;;;4.57;;
18596;SDS011;9428;50.950;6.912;2023-04-03T02:54:39;7.63;;;3.80;;
18596;SDS011;9428;50.950;6.912;2023-04-03T02:57:27;4.83;;;3.60;;
18596;SDS011;9428;50.950;6.912;2023-04-03T03:00:15;8.13;;;5.13;;
18596;SDS011;9428;50.950;6.912;2023-04-03T03:03:02;6.67;;;3.73;;
18596;SDS011;9428;50.950;6.912;2023-04-03T03:05:50;4.17;;;3.10;;
18596;SDS011;9428;50.950;6.912;2023-04-03T03:08:46;5.70;;;3.30;;
18596;SDS011;9428;50.950;6.912;2023-04-03T03:11:33;4.60;;;3.17;;
18596;SDS011;9428;50.950;6.912;2023-04-03T03:14:22;7.17;;;3.00;;
18596;SDS011;9428;50.950;6.912;2023-04-03T03:17:09;5.33;;;2.87;;
18596;SDS011;9428;50.950;6.912;2023-04-03T03:19:56;5.83;;;2.57;;
18596;SDS011;9428;50.950;6.912;2023-04-03T03:22:44;6.40;;;2.70;;
18596;SDS011;9428;50.950;6.912;2023-04-03T03:25:31;6.53;;;2.90;;
18596;SDS011;9428;50.950;6.912;2023-04-03T03:28:18;5.83;;;3.10;;
18596;SDS011;9428;50.950;6.912;2023-04-03T03:31:07;4.30;;;2.90;;
18596;SDS011;9428;50.950;6.912;2023-04-03T03:33:55;6.13;;;2.70;;
18596;SDS011;9428;50.950;6.912;2023-04-03T03:36:42;4.97;;;2.80;;
18596;SDS011;9428;50.950;6.912;2023-04-03T03:39:30;3.90;;;2.30;;
18596;SDS011;9428;50.950;6.912;2023-04-03T03:42:17;3.87;;;2.63;;
18596;SDS011;9428;50.950;6.912;2023-04-03T03:45:05;5.17;;;2.47;;
18596;SDS011;9428;50.950;6.912;2023-04-03T03:47:54;5.03;;;2.53;;
18596;SDS011;9428;50.950;6.912;2023-04-03T03:50:41;7.03;;;3.00;;
18596;SDS011;9428;50.950;6.912;2023-04-03T03:53:29;2.47;;;2.13;;
18596;SDS011;9428;50.950;6.912;2023-04-03T03:56:16;3.53;;;2.53;;
18596;SDS011;9428;50.950;6.912;2023-04-03T03:59:03;6.47;;;2.70;;
18596;SDS011;9428;50.950;6.912;2023-04-03T04:01:50;5.13;;;2.67;;
18596;SDS011;9428;50.950;6.912;2023-04-03T04:04:39;5.07;;;2.60;;
18596;SDS011;9428;50.950;6.912;2023-04-03T04:07:26;5.13;;;1.80;;
18596;SDS011;9428;50.950;6.912;2023-04-03T04:10:14;4.67;;;2.20;;
18596;SDS011;9428;50.950;6.912;2023-04-03T04:13:02;4.40;;;2.23;;
18596;SDS011;9428;50.950;6.912;2023-04-03T04:15:49;4.50;;;2.10;;
18596;SDS011;9428;50.950;6.912;2023-04-03T04:18:36;4.37;;;2.60;;
18596;SDS011;9428;50.950;6.912;2023-04-03T04:21:25;4.20;;;2.23;;
18596;SDS011;9428;50.950;6.912;2023-04-03T04:24:12;3.60;;;2.10;;
18596;SDS011;9428;50.950;6.912;2023-04-03T04:26:59;7.23;;;2.40;;
18596;SDS011;9428;50.950;6.912;2023-04-03T04:29:46;4.00;;;2.17;;
18596;SDS011;9428;50.950;6.912;2023-04-03T04:32:33;3.73;;;2.20;;
18596;SDS011;9428;50.950;6.912;2023-04-03T04:35:21;5.93;;;2.43;;
18596;SDS011;9428;50.950;6.912;2023-04-03T04:38:09;4.53;;;2.37;;
18596;SDS011;9428;50.950;6.912;2023-04-03T04:40:56;5.80;;;2.63;;
18596;SDS011;9428;50.950;6.912;2023-04-03T04:43:43;5.73;;;2.47;;
18596;SDS011;9428;50.950;6.912;2023-04-03T04:46:31;5.47;;;2.13;;
18596;SDS011;9428;50.950;6.912;2023-04-03T04:49:18;3.20;;;2.00;;
18596;SDS011;9428;50.950;6.912;2023-04-03T04:52:05;3.53;;;2.23;;
18596;SDS011;9428;50.950;6.912;2023-04-03T04:54:54;2.77;;;2.00;;
18596;SDS011;9428;50.950;6.912;2023-04-03T04:57:41;3.17;;;2.10;;
18596;SDS011;9428;50.950;6.912;2023-04-03T05:00:28;5.23;;;2.23;;
18596;SDS011;9428;50.950;6.912;2023-04-03T05:03:16;2.47;;;1.70;;
18596;SDS011;9428;50.950;6.912;2023-04-03T05:06:03;3.80;;;2.00;;
18596;SDS011;9428;50.950;6.912;2023-04-03T05:08:50;6.47;;;1.77;;
18596;SDS011;9428;50.950;6.912;2023-04-03T05:11:39;3.97;;;2.00;;
18596;SDS011;9428;50.950;6.912;2023-04-03T05:14:26;4.23;;;2.20;;
18596;SDS011;9428;50.950;6.912;2023-04-03T05:17:13;4.37;;;1.83;;
18596;SDS011;9428;50.950;6.912;2023-04-03T05:20:01;3.33;;;1.60;;
18596;SDS011;9428;50.950;6.912;2023-04-03T05:22:49;1.83;;;1.60;;
18596;SDS011;9428;50.950;6.912;2023-04-03T05:25:37;3.23;;;1.60;;
18596;SDS011;9428;50.950;6.912;2023-04-03T05:28:25;2.80;;;1.90;;
18596;SDS011;9428;50.950;6.912;2023-04-03T05:31:12;5.73;;;1.93;;
18596;SDS011;9428;50.950;6.912;2023-04-03T05:34:00;4.00;;;1.97;;
18596;SDS011;9428;50.950;6.912;2023-04-03T05:36:47;2.73;;;1.90;;
18596;SDS011;9428;50.950;6.912;2023-04-03T05:39:34;3.17;;;1.80;;
18596;SDS011;9428;50.950;6.912;2023-04-03T05:42:23;5.57;;;2.30;;
18596;SDS011;9428;50.950;6.912;2023-04-03T05:45:12;8.40;;;1.80;;
18596;SDS011;9428;50.950;6.912;2023-04-03T05:47:59;7.27;;;2.10;;
18596;SDS011;9428;50.950;6.912;2023-04-03T05:50:46;3.83;;;1.70;;
18596;SDS011;9428;50.950;6.912;2023-04-03T05:53:35;6.87;;;2.43;;
18596;SDS011;9428;50.950;6.912;2023-04-03T05:56:23;10.23;;;2.00;;
18596;SDS011;9428;50.950;6.912;2023-04-03T05:59:10;5.63;;;1.93;;
18596;SDS011;9428;50.950;6.912;2023-04-03T06:01:59;2.80;;;2.00;;
18596;SDS011;9428;50.950;6.912;2023-04-03T06:04:47;8.27;;;2.17;;
18596;SDS011;9428;50.950;6.912;2023-04-03T06:07:34;2.73;;;1.73;;
18596;SDS011;9428;50.950;6.912;2023-04-03T06:10:22;6.33;;;2.33;;
18596;SDS011;9428;50.950;6.912;2023-04-03T06:13:09;4.93;;;2.07;;
18596;SDS011;9428;50.950;6.912;2023-04-03T06:15:56;7.50;;;1.90;;
18596;SDS011;9428;50.950;6.912;2023-04-03T06:18:45;5.87;;;2.90;;
18596;SDS011;9428;50.950;6.912;2023-04-03T06:21:32;3.17;;;1.80;;
18596;SDS011;9428;50.950;6.912;2023-04-03T06:24:21;7.80;;;2.37;;
18596;SDS011;9428;50.950;6.912;2023-04-03T06:27:09;7.13;;;2.23;;
18596;SDS011;9428;50.950;6.912;2023-04-03T06:29:57;8.50;;;2.00;;
18596;SDS011;9428;50.950;6.912;2023-04-03T06:32:44;4.13;;;1.63;;
18596;SDS011;9428;50.950;6.912;2023-04-03T06:35:33;5.67;;;2.20;;
18596;SDS011;9428;50.950;6.912;2023-04-03T06:38:20;8.87;;;1.97;;
18596;SDS011;9428;50.950;6.912;2023-04-03T06:41:07;3.77;;;1.83;;
18596;SDS011;9428;50.950;6.912;2023-04-03T06:43:55;2.97;;;1.70;;
18596;SDS011;9428;50.950;6.912;2023-04-03T06:46:43;4.63;;;2.00;;
18596;SDS011;9428;50.950;6.912;2023-04-03T06:49:31;4.97;;;2.00;;
18596;SDS011;9428;50.950;6.912;2023-04-03T06:52:20;5.93;;;2.33;;
18596;SDS011;9428;50.950;6.912;2023-04-03T06:55:08;4.30;;;1.97;;
18596;SDS011;9428;50.950;6.912;2023-04-03T06:57:55;4.50;;;2.10;;
18596;SDS011;9428;50.950;6.912;2023-04-03T07:00:43;3.27;;;1.80;;
18596;SDS011;9428;50.950;6.912;2023-04-03T07:03:30;4.73;;;2.13;;
18596;SDS011;9428;50.950;6.912;2023-04-03T07:06:17;4.93;;;1.80;;
18596;SDS011;9428;50.950;6.912;2023-04-03T07:09:07;3.43;;;1.90;;
18596;SDS011;9428;50.950;6.912;2023-04-03T07:11:54;4.40;;;1.83;;
18596;SDS011;9428;50.950;6.912;2023-04-03T07:14:41;5.23;;;1.77;;
18596;SDS011;9428;50.950;6.912;2023-04-03T07:17:29;3.33;;;1.57;;
18596;SDS011;9428;50.950;6.912;2023-04-03T07:20:16;5.50;;;1.80;;
18596;SDS011;9428;50.950;6.912;2023-04-03T07:23:03;8.00;;;1.87;;
18596;SDS011;9428;50.950;6.912;2023-04-03T07:25:52;6.37;;;1.80;;
18596;SDS011;9428;50.950;6.912;2023-04-03T07:28:41;4.00;;;1.73;;
18596;SDS011;9428;50.950;6.912;2023-04-03T07:31:29;5.63;;;2.10;;
18596;SDS011;9428;50.950;6.912;2023-04-03T07:34:17;3.63;;;1.97;;
18596;SDS011;9428;50.950;6.912;2023-04-03T07:37:04;6.20;;;1.97;;
18596;SDS011;9428;50.950;6.912;2023-04-03T07:39:52;6.93;;;2.13;;
18596;SDS011;9428;50.950;6.912;2023-04-03T07:42:41;2.73;;;1.73;;
18596;SDS011;9428;50.950;6.912;2023-04-03T07:45:29;7.13;;;1.77;;
18596;SDS011;9428;50.950;6.912;2023-04-03T07:48:16;5.33;;;1.83;;
18596;SDS011;9428;50.950;6.912;2023-04-03T07:51:05;3.93;;;1.33;;
18596;SDS011;9428;50.950;6.912;2023-04-03T07:53:52;5.70;;;1.57;;
18596;SDS011;9428;50.950;6.912;2023-04-03T07:56:40;6.43;;;1.63;;
18596;SDS011;9428;50.950;6.912;2023-04-03T07:59:29;2.47;;;1.63;;
18596;SDS011;9428;50.950;6.912;2023-04-03T08:02:16;5.13;;;1.73;;
18596;SDS011;9428;50.950;6.912;2023-04-03T08:05:04;3.73;;;1.57;;
18596;SDS011;9428;50.950;6.912;2023-04-03T08:07:52;3.90;;;1.90;;
18596;SDS011;9428;50.950;6.912;2023-04-03T08:10:39;4.73;;;1.67;;
18596;SDS011;9428;50.950;6.912;2023-04-03T08:13:28;4.60;;;1.57;;
18596;SDS011;9428;50.950;6.912;2023-04-03T08:16:18;3.57;;;1.77;;
18596;SDS011;9428;50.950;6.912;2023-04-03T08:19:08;5.90;;;1.87;;
18596;SDS011;9428;50.950;6.912;2023-04-03T08:21:56;4.53;;;2.00;;
18596;SDS011;9428;50.950;6.912;2023-04-03T08:24:44;3.27;;;1.70;;
18596;SDS011;9428;50.950;6.912;2023-04-03T08:27:31;3.47;;;1.50;;
18596;SDS011;9428;50.950;6.912;2023-04-03T08:30:18;5.13;;;1.90;;
18596;SDS011;9428;50.950;6.912;2023-04-03T08:33:07;4.80;;;1.67;;
18596;SDS011;9428;50.950;6.912;2023-04-03T08:35:55;4.63;;;1.50;;
18596;SDS011;9428;50.950;6.912;2023-04-03T08:38:42;4.93;;;1.40;;
18596;SDS011;9428;50.950;6.912;2023-04-03T08:41:31;4.30;;;1.70;;
18596;SDS011;9428;50.950;6.912;2023-04-03T08:44:23;2.87;;;1.30;;
18596;SDS011;9428;50.950;6.912;2023-04-03T08:47:15;4.37;;;1.13;;
18596;SDS011;9428;50.950;6.912;2023-04-03T08:50:12;3.93;;;1.40;;
18596;SDS011;9428;50.950;6.912;2023-04-03T08:53:03;4.93;;;1.60;;
18596;SDS011;9428;50.950;6.912;2023-04-03T08:55:52;4.37;;;1.70;;
18596;SDS011;9428;50.950;6.912;2023-04-03T08:58:41;5.80;;;1.80;;
18596;SDS011;9428;50.950;6.912;2023-04-03T09:01:34;8.47;;;1.93;;
18596;SDS011;9428;50.950;6.912;2023-04-03T09:04:23;2.63;;;1.43;;
18596;SDS011;9428;50.950;6.912;2023-04-03T09:07:16;5.13;;;1.70;;
18596;SDS011;9428;50.950;6.912;2023-04-03T09:10:09;4.77;;;1.30;;
18596;SDS011;9428;50.950;6.912;2023-04-03T09:13:01;2.30;;;1.40;;
18596;SDS011;9428;50.950;6.912;2023-04-03T09:15:54;3.27;;;1.20;;
18596;SDS011;9428;50.950;6.912;2023-04-03T09:18:43;2.07;;;1.10;;
18596;SDS011;9428;50.950;6.912;2023-04-03T09:21:36;1.67;;;1.10;;
18596;SDS011;9428;50.950;6.912;2023-04-03T09:24:29;2.77;;;1.33;;
18596;SDS011;9428;50.950;6.912;2023-04-03T09:27:19;3.17;;;1.30;;
18596;SDS011;9428;50.950;6.912;2023-04-03T09:30:11;2.30;;;1.30;;
18596;SDS011;9428;50.950;6.912;2023-04-03T09:33:01;3.47;;;1.00;;
18596;SDS011;9428;50.950;6.912;2023-04-03T09:35:48;4.37;;;1.50;;
18596;SDS011;9428;50.950;6.912;2023-04-03T09:38:36;2.87;;;1.40;;
18596;SDS011;9428;50.950;6.912;2023-04-03T09:41:25;5.73;;;1.20;;
18596;SDS011;9428;50.950;6.912;2023-04-03T09:44:20;5.50;;;2.90;;
18596;SDS011;9428;50.950;6.912;2023-04-03T09:47:17;3.07;;;1.90;;
18596;SDS011;9428;50.950;6.912;2023-04-03T09:50:19;2.83;;;1.57;;
18596;SDS011;9428;50.950;6.912;2023-04-03T09:53:24;1.97;;;1.17;;
18596;SDS011;9428;50.950;6.912;2023-04-03T09:56:22;2.27;;;1.07;;
18596;SDS011;9428;50.950;6.912;2023-04-03T09:59:14;3.77;;;1.40;;
18596;SDS011;9428;50.950;6.912;2023-04-03T10:02:04;4.07;;;1.60;;
18596;SDS011;9428;50.950;6.912;2023-04-03T10:05:25;8.30;;;1.53;;
18596;SDS011;9428;50.950;6.912;2023-04-03T10:08:20;4.80;;;1.20;;
18596;SDS011;9428;50.950;6.912;2023-04-03T10:11:13;3.23;;;1.30;;
18596;SDS011;9428;50.950;6.912;2023-04-03T10:14:04;2.00;;;1.30;;
18596;SDS011;9428;50.950;6.912;2023-04-03T10:16:53;1.30;;;1.10;;
18596;SDS011;9428;50.950;6.912;2023-04-03T10:19:46;3.30;;;1.40;;
18596;SDS011;9428;50.950;6.912;2023-04-03T10:22:40;3.33;;;1.30;;
18596;SDS011;9428;50.950;6.912;2023-04-03T10:25:39;10.27;;;1.37;;
18596;SDS011;9428;50.950;6.912;2023-04-03T10:28:31;4.63;;;1.20;;
18596;SDS011;9428;50.950;6.912;2023-04-03T10:31:23;6.00;;;1.77;;
18596;SDS011;9428;50.950;6.912;2023-04-03T10:34:18;3.20;;;1.60;;
18596;SDS011;9428;50.950;6.912;2023-04-03T10:37:11;2.63;;;1.53;;
18596;SDS011;9428;50.950;6.912;2023-04-03T10:40:11;4.83;;;1.73;;
18596;SDS011;9428;50.950;6.912;2023-04-03T10:43:09;1.47;;;1.27;;
18596;SDS011;9428;50.950;6.912;2023-04-03T10:46:02;2.10;;;1.23;;
18596;SDS011;9428;50.950;6.912;2023-04-03T10:48:59;2.07;;;1.00;;
18596;SDS011;9428;50.950;6.912;2023-04-03T10:51:59;5.07;;;2.40;;
18596;SDS011;9428;50.950;6.912;2023-04-03T10:54:55;4.33;;;1.23;;
18596;SDS011;9428;50.950;6.912;2023-04-03T10:57:49;4.17;;;1.40;;
18596;SDS011;9428;50.950;6.912;2023-04-03T11:00:38;2.27;;;1.13;;
18596;SDS011;9428;50.950;6.912;2023-04-03T11:03:29;2.93;;;1.37;;
18596;SDS011;9428;50.950;6.912;2023-04-03T11:06:19;1.63;;;1.00;;
18596;SDS011;9428;50.950;6.912;2023-04-03T11:09:15;1.47;;;0.90;;
18596;SDS011;9428;50.950;6.912;2023-04-03T11:12:10;3.00;;;1.20;;
18596;SDS011;9428;50.950;6.912;2023-04-03T11:15:01;1.43;;;1.17;;
18596;SDS011;9428;50.950;6.912;2023-04-03T11:17:50;4.97;;;1.40;;
18596;SDS011;9428;50.950;6.912;2023-04-03T11:20:41;1.83;;;0.93;;
18596;SDS011;9428;50.950;6.912;2023-04-03T11:23:32;2.73;;;1.20;;
18596;SDS011;9428;50.950;6.912;2023-04-03T11:26:23;4.63;;;1.10;;
18596;SDS011;9428;50.950;6.912;2023-04-03T11:29:14;2.57;;;1.00;;
18596;SDS011;9428;50.950;6.912;2023-04-03T11:32:09;2.40;;;0.87;;
18596;SDS011;9428;50.950;6.912;2023-04-03T11:35:15;2.43;;;1.00;;
18596;SDS011;9428;50.950;6.912;2023-04-03T11:38:04;3.43;;;1.10;;
18596;SDS011;9428;50.950;6.912;2023-04-03T11:40:53;6.97;;;1.20;;
18596;SDS011;9428;50.950;6.912;2023-04-03T11:43:55;4.00;;;1.10;;
18596;SDS011;9428;50.950;6.912;2023-04-03T11:46:51;1.80;;;1.07;;
18596;SDS011;9428;50.950;6.912;2023-04-03T11:49:55;7.17;;;1.40;;
18596;SDS011;9428;50.950;6.912;2023-04-03T11:53:00;3.80;;;1.10;;
18596;SDS011;9428;50.950;6.912;2023-04-03T11:55:56;2.33;;;1.20;;
18596;SDS011;9428;50.950;6.912;2023-04-03T11:58:49;2.40;;;1.50;;
18596;SDS011;9428;50.950;6.912;2023-04-03T12:02:14;1.37;;;0.77;;
18596;SDS011;9428;50.950;6.912;2023-04-03T12:05:27;3.13;;;0.97;;
18596;SDS011;9428;50.950;6.912;2023-04-03T12:08:16;1.20;;;1.00;;
18596;SDS011;9428;50.950;6.912;2023-04-03T12:11:15;3.27;;;0.83;;
18596;SDS011;9428;50.950;6.912;2023-04-03T12:14:14;2.83;;;0.97;;
18596;SDS011;9428;50.950;6.912;2023-04-03T12:17:03;2.57;;;0.90;;
18596;SDS011;9428;50.950;6.912;2023-04-03T12:23:28;3.13;;;1.20;;
18596;SDS011;9428;50.950;6.912;2023-04-03T12:26:19;2.07;;;1.30;;
18596;SDS011;9428;50.950;6.912;2023-04-03T12:29:10;1.47;;;0.80;;
18596;SDS011;9428;50.950;6.912;2023-04-03T12:32:06;1.40;;;0.77;;
18596;SDS011;9428;50.950;6.912;2023-04-03T12:35:07;2.30;;;1.20;;
18596;SDS011;9428;50.950;6.912;2023-04-03T12:38:16;4.40;;;1.40;;
18596;SDS011;9428;50.950;6.912;2023-04-03T12:41:21;2.33;;;0.90;;
18596;SDS011;9428;50.950;6.912;2023-04-03T12:44:30;2.70;;;1.50;;
18596;SDS011;9428;50.950;6.912;2023-04-03T12:47:28;1.23;;;0.90;;
18596;SDS011;9428;50.950;6.912;2023-04-03T12:50:20;4.33;;;1.17;;
18596;SDS011;9428;50.950;6.912;2023-04-03T12:53:11;1.17;;;0.80;;
18596;SDS011;9428;50.950;6.912;2023-04-03T12:56:19;3.33;;;1.10;;
18596;SDS011;9428;50.950;6.912;2023-04-03T12:59:14;3.40;;;1.30;;
18596;SDS011;9428;50.950;6.912;2023-04-03T13:02:10;1.27;;;0.90;;
18596;SDS011;9428;50.950;6.912;2023-04-03T13:05:05;4.20;;;1.20;;
18596;SDS011;9428;50.950;6.912;2023-04-03T13:07:56;1.57;;;1.03;;
18596;SDS011;9428;50.950;6.912;2023-04-03T13:10:49;3.63;;;0.97;;
18596;SDS011;9428;50.950;6.912;2023-04-03T13:13:39;3.07;;;1.10;;
18596;SDS011;9428;50.950;6.912;2023-04-03T13:16:40;2.07;;;1.20;;
18596;SDS011;9428;50.950;6.912;2023-04-03T13:19:29;2.97;;;1.48;;
18596;SDS011;9428;50.950;6.912;2023-04-03T13:22:25;2.10;;;0.93;;
18596;SDS011;9428;50.950;6.912;2023-04-03T13:25:16;3.87;;;1.00;;
18596;SDS011;9428;50.950;6.912;2023-04-03T13:28:05;1.53;;;1.07;;
18596;SDS011;9428;50.950;6.912;2023-04-03T13:31:05;1.40;;;0.97;;
18596;SDS011;9428;50.950;6.912;2023-04-03T13:33:57;3.40;;;1.15;;
18596;SDS011;9428;50.950;6.912;2023-04-03T13:36:56;2.80;;;1.37;;
18596;SDS011;9428;50.950;6.912;2023-04-03T13:39:45;3.63;;;1.30;;
18596;SDS011;9428;50.950;6.912;2023-04-03T13:42:42;2.08;;;1.17;;
18596;SDS011;9428;50.950;6.912;2023-04-03T13:45:30;1.55;;;1.08;;
18596;SDS011;9428;50.950;6.912;2023-04-03T13:48:19;2.40;;;1.27;;
18596;SDS011;9428;50.950;6.912;2023-04-03T13:51:17;1.83;;;0.97;;
18596;SDS011;9428;50.950;6.912;2023-04-03T13:54:16;1.57;;;1.00;;
18596;SDS011;9428;50.950;6.912;2023-04-03T13:57:12;2.13;;;1.35;;
18596;SDS011;9428;50.950;6.912;2023-04-03T14:03:14;2.40;;;1.60;;
18596;SDS011;9428;50.950;6.912;2023-04-03T14:06:08;2.87;;;1.20;;
18596;SDS011;9428;50.950;6.912;2023-04-03T14:08:59;2.67;;;1.20;;
18596;SDS011;9428;50.950;6.912;2023-04-03T14:11:47;3.80;;;1.27;;
18596;SDS011;9428;50.950;6.912;2023-04-03T14:14:36;2.05;;;1.30;;
18596;SDS011;9428;50.950;6.912;2023-04-03T14:17:26;5.17;;;1.43;;
18596;SDS011;9428;50.950;6.912;2023-04-03T14:20:14;2.78;;;1.35;;
18596;SDS011;9428;50.950;6.912;2023-04-03T14:23:02;2.58;;;1.30;;
18596;SDS011;9428;50.950;6.912;2023-04-03T14:25:49;2.20;;;1.30;;
18596;SDS011;9428;50.950;6.912;2023-04-03T14:28:38;3.10;;;1.30;;
18596;SDS011;9428;50.950;6.912;2023-04-03T14:31:26;3.90;;;1.33;;
18596;SDS011;9428;50.950;6.912;2023-04-03T14:34:13;3.03;;;1.47;;
18596;SDS011;9428;50.950;6.912;2023-04-03T14:37:01;2.53;;;1.47;;
18596;SDS011;9428;50.950;6.912;2023-04-03T14:39:51;6.68;;;1.30;;
18596;SDS011;9428;50.950;6.912;2023-04-03T14:42:39;3.75;;;1.88;;
18596;SDS011;9428;50.950;6.912;2023-04-03T14:45:28;3.67;;;1.02;;
18596;SDS011;9428;50.950;6.912;2023-04-03T14:48:16;5.80;;;1.10;;
18596;SDS011;9428;50.950;6.912;2023-04-03T14:51:06;4.20;;;1.20;;
18596;SDS011;9428;50.950;6.912;2023-04-03T14:53:55;2.97;;;1.25;;
18596;SDS011;9428;50.950;6.912;2023-04-03T14:56:42;3.03;;;1.45;;
18596;SDS011;9428;50.950;6.912;2023-04-03T14:59:30;3.17;;;1.10;;
18596;SDS011;9428;50.950;6.912;2023-04-03T15:02:29;3.17;;;1.45;;
18596;SDS011;9428;50.950;6.912;2023-04-03T15:05:18;3.55;;;1.27;;
18596;SDS011;9428;50.950;6.912;2023-04-03T15:08:08;8.35;;;1.42;;
18596;SDS011;9428;50.950;6.912;2023-04-03T15:11:07;3.92;;;1.20;;
18596;SDS011;9428;50.950;6.912;2023-04-03T15:13:55;1.67;;;0.98;;
18596;SDS011;9428;50.950;6.912;2023-04-03T15:16:42;1.77;;;1.10;;
18596;SDS011;9428;50.950;6.912;2023-04-03T15:19:31;3.28;;;1.25;;
18596;SDS011;9428;50.950;6.912;2023-04-03T15:22:23;6.53;;;1.10;;
18596;SDS011;9428;50.950;6.912;2023-04-03T15:25:10;3.17;;;0.93;;
18596;SDS011;9428;50.950;6.912;2023-04-03T15:27:58;1.13;;;0.93;;
18596;SDS011;9428;50.950;6.912;2023-04-03T15:30:46;1.57;;;1.00;;
18596;SDS011;9428;50.950;6.912;2023-04-03T15:33:33;2.92;;;1.20;;
18596;SDS011;9428;50.950;6.912;2023-04-03T15:36:22;3.97;;;1.30;;
18596;SDS011;9428;50.950;6.912;2023-04-03T15:39:09;2.35;;;1.20;;
18596;SDS011;9428;50.950;6.912;2023-04-03T15:41:57;2.10;;;1.03;;
18596;SDS011;9428;50.950;6.912;2023-04-03T15:44:49;3.30;;;1.45;;
18596;SDS011;9428;50.950;6.912;2023-04-03T15:47:36;2.72;;;1.00;;
18596;SDS011;9428;50.950;6.912;2023-04-03T15:50:24;3.45;;;1.25;;
18596;SDS011;9428;50.950;6.912;2023-04-03T15:53:13;3.72;;;1.00;;
18596;SDS011;9428;50.950;6.912;2023-04-03T15:56:00;3.85;;;1.35;;
18596;SDS011;9428;50.950;6.912;2023-04-03T15:58:47;3.25;;;1.45;;
18596;SDS011;9428;50.950;6.912;2023-04-03T16:01:34;1.83;;;1.13;;
18596;SDS011;9428;50.950;6.912;2023-04-03T16:04:23;6.23;;;2.03;;
18596;SDS011;9428;50.950;6.912;2023-04-03T16:07:10;6.30;;;1.40;;
18596;SDS011;9428;50.950;6.912;2023-04-03T16:09:59;3.63;;;1.33;;
18596;SDS011;9428;50.950;6.912;2023-04-03T16:12:46;1.95;;;0.98;;
18596;SDS011;9428;50.950;6.912;2023-04-03T16:15:34;4.10;;;1.80;;
18596;SDS011;9428;50.950;6.912;2023-04-03T16:18:22;2.35;;;1.30;;
18596;SDS011;9428;50.950;6.912;2023-04-03T16:21:09;2.97;;;1.13;;
18596;SDS011;9428;50.950;6.912;2023-04-03T16:23:57;1.80;;;1.30;;
18596;SDS011;9428;50.950;6.912;2023-04-03T16:26:46;4.40;;;1.00;;
18596;SDS011;9428;50.950;6.912;2023-04-03T16:29:33;3.00;;;1.10;;
18596;SDS011;9428;50.950;6.912;2023-04-03T16:32:20;1.42;;;1.08;;
18596;SDS011;9428;50.950;6.912;2023-04-03T16:35:08;3.13;;;1.27;;
18596;SDS011;9428;50.950;6.912;2023-04-03T16:37:56;2.78;;;1.35;;
18596;SDS011;9428;50.950;6.912;2023-04-03T16:40:44;4.97;;;1.20;;
18596;SDS011;9428;50.950;6.912;2023-04-03T16:43:32;1.85;;;1.00;;
18596;SDS011;9428;50.950;6.912;2023-04-03T16:46:20;4.05;;;1.42;;
18596;SDS011;9428;50.950;6.912;2023-04-03T16:49:07;2.10;;;1.40;;
18596;SDS011;9428;50.950;6.912;2023-04-03T16:51:55;3.50;;;1.30;;
18596;SDS011;9428;50.950;6.912;2023-04-03T16:54:42;3.47;;;1.40;;
18596;SDS011;9428;50.950;6.912;2023-04-03T16:57:29;3.65;;;1.10;;
18596;SDS011;9428;50.950;6.912;2023-04-03T17:00:18;2.38;;;0.82;;
18596;SDS011;9428;50.950;6.912;2023-04-03T17:03:05;1.35;;;0.88;;
18596;SDS011;9428;50.950;6.912;2023-04-03T17:05:53;4.68;;;1.30;;
18596;SDS011;9428;50.950;6.912;2023-04-03T17:08:40;3.57;;;1.10;;
18596;SDS011;9428;50.950;6.912;2023-04-03T17:11:28;3.60;;;1.17;;
18596;SDS011;9428;50.950;6.912;2023-04-03T17:14:16;1.70;;;1.27;;
18596;SDS011;9428;50.950;6.912;2023-04-03T17:17:04;2.70;;;1.20;;
18596;SDS011;9428;50.950;6.912;2023-04-03T17:19:53;3.50;;;1.40;;
18596;SDS011;9428;50.950;6.912;2023-04-03T17:22:41;2.60;;;1.20;;
18596;SDS011;9428;50.950;6.912;2023-04-03T17:25:29;3.73;;;1.67;;